• Join FlightAware (Why Join?)
  • Login
  • US Flag 
02:54AM EST


 

Airport Tracker/Info


-or-


 

Live Flight TrackerFlight Track Log ✈ SPK405 ✈ 21-Aug-2013 ✈ KTRI - KGSO

Flight Track Log - Related Links

Times and Time Zones

All times are in EDT time to prevent confusion due to time zone crossing. See the SPK405 flight status page for this flight to view local times or setup timezone preferences in your user account.

Time Position Orientation Groundspeed Altitude Reporting Facility
EDT Latitude Longitude Course Direction KTS MPH feet Rate Location/Type
07:37PM 36.4167 -82.0636 90° East  Level FlightAware Approximate
07:38PM 36.4126 -82.0069 101° East  Level FlightAware Approximate
07:39PM 36.4040 -81.9507 101° East  Level FlightAware Approximate
07:39PM 36.4142 -82.0986 96° East 175 201 8,900  Level Atlanta Center
07:40PM 36.3954 -81.8946 101° East  Level FlightAware Approximate
07:40PM 36.4050 -82.0422 101° East 193 222 8,900  Level Atlanta Center
07:41PM 36.3867 -81.8385 101° East  Level FlightAware Approximate
07:41PM 36.3933 -81.9781 103° East 198 228 8,900  Level Atlanta Center
07:42PM 36.3783 -81.7823 100° East  Level FlightAware Approximate
07:42PM 36.3819 -81.9164 103° East 198 228 8,900  Level Atlanta Center
07:43PM 36.3699 -81.7261 100° East  Level FlightAware Approximate
07:43PM 36.3747 -81.8522 98° East 198 228 8,900  Level Atlanta Center
07:44PM 36.3650 -81.7853 100° East 198 228 8,900  Level Atlanta Center
07:45PM 36.3575 -81.7186 98° East 198 228 8,900  Level Atlanta Center
07:46PM 36.3478 -81.6492 100° East 198 228 8,900  Level Atlanta Center
07:47PM 36.3383 -81.5825 100° East 198 228 8,900  Level Atlanta Center
07:48PM 36.3264 -81.5183 103° East 198 228 8,900  Level Atlanta Center
07:49PM 36.3167 -81.4517 100° East 198 228 8,900  Level Atlanta Center
07:50PM 36.3050 -81.3903 103° East 198 228 8,900  Level Atlanta Center
07:51PM 36.2972 -81.3236 98° East 198 228 8,900  Level Atlanta Center
07:52PM 36.2833 -81.2594 105° East 198 228 8,900  Level Atlanta Center
07:53PM 36.2714 -81.1956 103° East 198 228 8,900  Level Atlanta Center
07:54PM 36.2639 -81.1392 99° East 198 228 8,900 -180 Level Atlanta Center
07:55PM 36.2561 -81.0725 98° East 198 228 8,600 -600 Descending Atlanta Center
07:56PM 36.2481 -81.0008 98° East 203 234 7,800 -780 Descending Atlanta Center
07:57PM 36.2358 -80.9267 102° East 208 239 7,100 -840 Descending Atlanta Center
07:58PM 36.2233 -80.8550 102° East 213 245 6,200 -840 Descending Atlanta Center
07:59PM 36.2153 -80.7833 98° East 213 245 5,500 -660 Descending Atlanta Center
08:00PM 36.2028 -80.7067 101° East 213 245 4,900 -300 Descending Atlanta Center
08:01PM 36.1947 -80.6400 98° East 201 231 4,900  Level Atlanta Center
08:02PM 36.1886 -80.5708 96° East 191 220 4,900  Level Atlanta Center
08:03PM 36.1806 -80.5094 99° East 191 220 4,900  Level Atlanta Center
08:04PM 36.1708 -80.4583 103° East 186 214 4,900  Level Atlanta Center
08:05PM 36.1628 -80.3944 99° East 181 208 4,900  Level Atlanta Center
08:07PM 36.1536 -80.2910 96° East  Level FlightAware Approximate
08:14PM 36.1000 -79.9333 90° East  Level FlightAware Approximate
08:15PM 36.1013 -79.9411 90° East  Level Estimated
08:16PM 36.1000 -79.9333 90° East  Level FlightAware Approximate
08:17PM 36.1013 -79.9411 90° East  Level Estimated
08:18PM 36.1000 -79.9333 90° East  Level FlightAware Approximate
08:19PM 36.1013 -79.9411 90° East  Level Estimated
08:20PM 36.1000 -79.9333 90° East  Level FlightAware Approximate
08:21PM 36.1013 -79.9411 90° East  Level Estimated
08:22PM 36.1000 -79.9333 90° East  Level FlightAware Approximate